Lewis, New York
Current Conditions -  °F | °C
As of 1:54 AM on Saturday 01 Nov 2014 (Local Time) from KBTV Reporting Station
Overcast Overcast  
Wind Chill: 32°   Ceiling: 6500
Heat Index: 38°   Visibility: 10mi
Dew Point: 27°   Wind: 8mph
Humidity: 65%   Direction: 350°N
Pressure: 30.03"   Gusts: NA
Location:  44.27°N, 73.57°W
Report Text: KBTV 010554Z 35007KT 10SM OVC065 03/M03 A3003 RMK AO2 SLP173 T00331028 10061 20033 58007
Loading
Personal Weather Stations






























Interactive Weather Map
Tropical Storm Tracking
New forecast layout! Learn more

10-Day Weather Forecast

Advertisements
Track Severe Weather on mobile